createdAt,value
2022-11-22T00:00:50.442Z,0.82
2022-11-22T00:03:18.300Z,1.25
2022-11-22T00:05:46.039Z,1.00
2022-11-22T00:08:13.848Z,1.52
2022-11-22T00:10:42.954Z,1.30
2022-11-22T00:13:10.816Z,0.88
2022-11-22T00:15:38.551Z,0.73
2022-11-22T00:18:06.400Z,1.10
2022-11-22T00:20:34.763Z,1.45
2022-11-22T00:23:02.504Z,1.65
2022-11-22T00:25:30.282Z,1.60
2022-11-22T00:27:59.425Z,1.08
2022-11-22T00:30:27.141Z,0.68
2022-11-22T00:32:54.888Z,1.80
2022-11-22T00:35:22.638Z,1.20
2022-11-22T00:37:50.446Z,1.00
2022-11-22T00:40:18.323Z,0.93
2022-11-22T00:42:46.071Z,0.70
2022-11-22T00:45:15.325Z,1.15
2022-11-22T00:47:43.039Z,0.60
2022-11-22T00:50:11.263Z,1.40
2022-11-22T00:52:38.999Z,0.88
2022-11-22T00:55:07.631Z,1.02
2022-11-22T00:57:35.369Z,0.80
2022-11-22T01:00:03.112Z,1.25
2022-11-22T01:02:32.279Z,1.00
2022-11-22T01:05:00.076Z,1.15
2022-11-22T01:07:27.920Z,1.33
2022-11-22T01:09:55.695Z,0.90
2022-11-22T01:12:23.487Z,0.90
2022-11-22T01:14:51.484Z,1.35
2022-11-22T01:17:19.344Z,1.13
2022-11-22T01:19:48.395Z,1.33
2022-11-22T01:22:16.290Z,0.82
2022-11-22T01:24:43.983Z,1.17
2022-11-22T01:27:11.763Z,1.05
2022-11-22T01:29:39.523Z,2.00
2022-11-22T01:32:07.749Z,0.90
2022-11-22T01:34:35.465Z,0.82
2022-11-22T01:37:05.345Z,0.75
2022-11-22T01:39:33.374Z,0.70
2022-11-22T01:42:01.132Z,0.90
2022-11-22T01:44:30.670Z,0.70
2022-11-22T01:47:01.364Z,1.90
2022-11-22T01:49:35.281Z,1.17
2022-11-22T01:52:08.749Z,1.15
2022-11-22T01:57:11.538Z,0.68
2022-11-22T01:59:44.559Z,0.77
2022-11-22T02:02:13.948Z,1.05
2022-11-22T02:04:44.709Z,1.58
2022-11-22T02:07:19.669Z,1.00
2022-11-22T02:09:50.143Z,1.58
2022-11-22T02:12:20.040Z,0.57
2022-11-22T02:14:48.826Z,0.95
2022-11-22T02:17:16.891Z,1.52
2022-11-22T02:19:47.399Z,1.02
2022-11-22T02:22:26.564Z,1.30
2022-11-22T02:24:58.028Z,0.93
2022-11-22T02:27:27.279Z,1.40
2022-11-22T02:29:55.029Z,0.88
2022-11-22T02:32:22.747Z,0.73
2022-11-22T02:34:52.081Z,0.40
2022-11-22T02:37:25.279Z,1.20
2022-11-22T02:39:58.287Z,1.35
2022-11-22T02:42:27.972Z,1.48
2022-11-22T02:44:55.774Z,1.38
2022-11-22T02:47:23.687Z,1.52
2022-11-22T02:49:53.734Z,1.42
2022-11-22T02:52:21.551Z,1.38
2022-11-22T02:54:49.298Z,1.27
2022-11-22T02:57:17.036Z,1.63
2022-11-22T02:59:46.181Z,1.45
2022-11-22T03:02:14.194Z,1.77
2022-11-22T03:04:41.921Z,1.42
2022-11-22T03:07:09.709Z,1.15
2022-11-22T03:09:37.548Z,1.60
2022-11-22T03:12:05.471Z,1.95
2022-11-22T03:14:33.236Z,0.82
2022-11-22T03:17:02.420Z,2.15
2022-11-22T03:19:30.469Z,1.70
2022-11-22T03:21:58.444Z,1.30
2022-11-22T03:24:26.213Z,1.02
2022-11-22T03:26:53.928Z,1.75
2022-11-22T03:29:21.683Z,1.65
2022-11-22T03:31:49.414Z,0.95
2022-11-22T03:34:18.638Z,1.58
2022-11-22T03:36:46.436Z,2.53
2022-11-22T03:39:14.184Z,1.67
2022-11-22T03:41:41.929Z,1.20
2022-11-22T03:44:09.644Z,1.30
2022-11-22T03:46:38.192Z,1.88
2022-11-22T03:49:05.896Z,1.13
2022-11-22T03:51:35.023Z,1.80
2022-11-22T03:54:02.791Z,1.45
2022-11-22T03:56:30.629Z,2.65
2022-11-22T03:58:58.387Z,1.40
2022-11-22T04:01:26.192Z,2.15
2022-11-22T04:03:54.011Z,1.65
2022-11-22T04:06:21.752Z,1.15
2022-11-22T04:08:51.177Z,1.42
2022-11-22T04:11:18.919Z,1.92
2022-11-22T04:14:12.389Z,2.05
2022-11-22T04:16:40.183Z,2.60
2022-11-22T04:19:08.423Z,1.15
2022-11-22T04:21:35.242Z,1.75
2022-11-22T04:24:23.481Z,0.95
2022-11-22T04:26:51.255Z,1.20
2022-11-22T04:29:20.050Z,1.30
2022-11-22T04:32:06.433Z,1.70
2022-11-22T04:34:34.395Z,1.10
2022-11-22T04:37:02.575Z,1.42
2022-11-22T04:39:32.167Z,1.00
2022-11-22T04:42:17.630Z,3.50
2022-11-22T04:44:46.095Z,1.95
2022-11-22T04:47:36.713Z,1.60
2022-11-22T04:50:27.920Z,1.55
2022-11-22T04:52:55.895Z,1.45
2022-11-22T04:55:25.042Z,1.85
2022-11-22T04:57:58.865Z,2.10
2022-11-22T05:00:28.155Z,1.48
2022-11-22T05:02:56.109Z,1.73
2022-11-22T05:05:24.117Z,1.75
2022-11-22T05:07:52.072Z,1.95
2022-11-22T05:10:25.866Z,1.40
2022-11-22T05:12:56.316Z,2.08
2022-11-22T05:15:24.033Z,2.35
2022-11-22T05:17:51.776Z,1.85
2022-11-22T05:20:19.628Z,1.65
2022-11-22T05:23:04.677Z,0.88
2022-11-22T05:25:32.396Z,2.38
2022-11-22T05:28:01.436Z,1.30
2022-11-22T05:30:29.165Z,1.70
2022-11-22T05:32:56.836Z,2.72
2022-11-22T05:35:24.664Z,2.05
2022-11-22T05:37:52.395Z,1.88
2022-11-22T05:40:20.151Z,1.27
2022-11-22T05:42:47.831Z,1.67
2022-11-22T05:45:17.192Z,1.98
2022-11-22T05:47:44.917Z,1.38
2022-11-22T05:50:13.264Z,2.78
2022-11-22T05:52:41.111Z,1.15
2022-11-22T05:55:09.235Z,1.73
2022-11-22T05:57:36.990Z,1.27
2022-11-22T06:00:05.884Z,1.67
2022-11-22T06:02:35.135Z,1.67
2022-11-22T06:05:02.915Z,0.88
2022-11-22T06:07:31.325Z,1.42
2022-11-22T06:09:59.128Z,1.20
2022-11-22T06:12:26.857Z,1.65
2022-11-22T06:14:54.543Z,1.02
2022-11-22T06:17:22.332Z,1.67
2022-11-22T06:19:51.457Z,0.88
2022-11-22T06:22:19.116Z,1.05
2022-11-22T06:24:46.844Z,1.08
2022-11-22T06:27:14.606Z,1.88
2022-11-22T06:29:42.694Z,0.77
2022-11-22T06:32:10.434Z,1.95
2022-11-22T06:34:38.176Z,1.42
2022-11-22T06:37:07.228Z,2.03
2022-11-22T06:39:35.207Z,1.40
2022-11-22T06:42:03.059Z,1.42
2022-11-22T06:44:30.796Z,1.27
2022-11-22T06:46:58.440Z,1.75
2022-11-22T06:49:26.202Z,0.80
2022-11-22T06:51:53.972Z,1.40
2022-11-22T06:54:23.010Z,1.70
2022-11-22T06:56:50.745Z,1.45
2022-11-22T06:59:18.608Z,1.60
2022-11-22T07:01:46.386Z,1.15
2022-11-22T07:04:14.233Z,1.95
2022-11-22T07:06:44.136Z,1.60
2022-11-22T07:09:12.499Z,1.55
2022-11-22T07:11:41.839Z,1.48
2022-11-22T07:14:09.753Z,0.98
2022-11-22T07:16:38.508Z,1.48
2022-11-22T07:19:07.025Z,1.65
2022-11-22T07:21:37.210Z,1.77
2022-11-22T07:24:06.947Z,1.33
2022-11-22T07:26:34.776Z,1.50
2022-11-22T07:29:04.072Z,1.38
2022-11-22T07:31:31.852Z,1.00
2022-11-22T07:33:59.620Z,1.70
2022-11-22T07:36:29.498Z,1.83
2022-11-22T07:38:57.698Z,1.75
2022-11-22T07:41:25.451Z,1.70
2022-11-22T07:43:53.962Z,1.50
2022-11-22T07:46:26.328Z,2.00
2022-11-22T07:48:54.312Z,1.37
2022-11-22T07:51:22.073Z,1.75
2022-11-22T07:53:49.867Z,2.03
2022-11-22T07:56:17.995Z,2.50
2022-11-22T07:58:45.840Z,1.35
2022-11-22T08:01:16.637Z,3.15
2022-11-22T08:03:46.520Z,1.92
2022-11-22T08:06:14.786Z,1.42
2022-11-22T08:08:43.011Z,1.63
2022-11-22T08:11:11.583Z,1.92
2022-11-22T08:13:39.435Z,1.40
2022-11-22T08:16:09.635Z,1.45
2022-11-22T08:18:38.743Z,1.58
2022-11-22T08:21:09.800Z,1.05
2022-11-22T08:23:38.428Z,0.93
2022-11-22T08:26:07.553Z,0.77
2022-11-22T08:28:35.373Z,1.20
2022-11-22T08:31:05.560Z,0.88
2022-11-22T08:33:33.363Z,0.80
2022-11-22T08:36:01.352Z,1.17
2022-11-22T08:38:30.542Z,0.95
2022-11-22T08:40:58.363Z,2.17
2022-11-22T08:43:26.647Z,1.42
2022-11-22T08:45:58.468Z,1.00
2022-11-22T08:48:26.817Z,1.45
2022-11-22T08:50:55.927Z,1.67
2022-11-22T08:53:24.292Z,1.20
2022-11-22T08:55:53.865Z,1.10
2022-11-22T08:58:22.920Z,1.15
2022-11-22T09:00:50.676Z,1.17
2022-11-22T09:03:18.444Z,1.00
2022-11-22T09:08:36.643Z,1.15
2022-11-22T09:11:13.098Z,1.33
2022-11-22T09:13:41.816Z,1.05
2022-11-22T09:16:12.625Z,1.23
2022-11-22T09:18:40.864Z,0.88
2022-11-22T09:21:10.958Z,0.70
2022-11-22T09:23:39.668Z,1.00
2022-11-22T09:26:11.204Z,1.52
2022-11-22T09:28:39.375Z,1.65
2022-11-22T09:31:09.476Z,1.27
2022-11-22T09:33:39.207Z,2.75
2022-11-22T09:36:09.696Z,1.88
2022-11-22T09:38:38.351Z,1.10
2022-11-22T09:41:21.620Z,1.33
2022-11-22T09:44:02.155Z,1.33
2022-11-22T09:46:42.243Z,1.85
2022-11-22T09:49:27.555Z,1.25
2022-11-22T09:52:07.579Z,1.23
2022-11-22T09:54:42.484Z,1.17
2022-11-22T09:57:17.519Z,1.30
2022-11-22T09:59:48.532Z,1.45
2022-11-22T10:02:22.366Z,1.50
2022-11-22T10:04:56.164Z,1.30
2022-11-22T10:07:29.758Z,2.05
2022-11-22T10:10:04.588Z,1.17
2022-11-22T10:12:41.267Z,1.50
2022-11-22T10:15:20.360Z,1.42
2022-11-22T10:17:55.088Z,1.20
2022-11-22T10:20:24.813Z,1.33
2022-11-22T10:22:52.945Z,2.60
2022-11-22T10:25:23.317Z,1.65
2022-11-22T10:28:00.582Z,1.45
2022-11-22T10:30:36.063Z,1.15
2022-11-22T10:33:14.168Z,1.25
2022-11-22T10:35:58.665Z,1.38
2022-11-22T10:38:48.223Z,1.00
2022-11-22T10:41:30.873Z,1.98
2022-11-22T10:44:15.455Z,1.88
2022-11-22T10:46:56.900Z,1.00
2022-11-22T10:49:39.893Z,1.40
2022-11-22T10:52:18.870Z,1.55
2022-11-22T10:54:53.087Z,1.77
2022-11-22T10:57:31.144Z,1.88
2022-11-22T11:00:15.843Z,2.28
2022-11-22T11:03:04.221Z,1.73
2022-11-22T11:06:00.746Z,1.73
2022-11-22T11:09:23.244Z,1.10
2022-11-22T11:11:26.796Z,2.20
2022-11-22T11:13:57.995Z,3.20
2022-11-22T11:16:32.077Z,1.75
2022-11-22T11:19:15.428Z,2.92
2022-11-22T11:21:43.134Z,3.20
2022-11-22T11:24:14.827Z,1.67
2022-11-22T11:26:44.582Z,1.67
2022-11-22T11:29:38.384Z,1.17
2022-11-22T11:34:37.987Z,1.55
2022-11-22T11:37:06.842Z,1.17
2022-11-22T11:39:39.409Z,1.35
2022-11-22T11:42:23.586Z,1.52
2022-11-22T11:44:51.662Z,2.90
2022-11-22T11:47:32.993Z,1.38
2022-11-22T11:50:01.256Z,1.83
2022-11-22T11:52:31.570Z,1.25
2022-11-22T11:55:03.089Z,1.77
2022-11-22T11:57:32.786Z,2.33
2022-11-22T12:00:02.475Z,1.80
2022-11-22T12:02:36.873Z,1.65
2022-11-22T12:05:07.549Z,1.33
2022-11-22T12:07:44.034Z,1.77
2022-11-22T12:10:31.642Z,2.05
2022-11-22T12:13:04.787Z,2.50
2022-11-22T12:18:21.020Z,1.23
2022-11-22T12:20:57.577Z,1.35
2022-11-22T12:23:30.786Z,1.40
2022-11-22T12:25:59.496Z,1.63
2022-11-22T12:28:29.227Z,1.33
2022-11-22T12:31:00.788Z,2.15
2022-11-22T12:33:35.237Z,1.58
2022-11-22T12:36:05.846Z,2.42
2022-11-22T12:38:37.762Z,1.77
2022-11-22T12:41:10.824Z,2.10
2022-11-22T12:43:45.616Z,1.80
2022-11-22T12:46:18.942Z,1.92
2022-11-22T12:51:24.335Z,2.33
2022-11-22T12:53:54.178Z,1.98
2022-11-22T12:56:33.651Z,1.58
2022-11-22T12:59:04.995Z,1.88
2022-11-22T13:01:40.048Z,2.00
2022-11-22T13:04:19.460Z,2.20
2022-11-22T13:06:57.999Z,3.22
2022-11-22T13:09:31.468Z,1.70
2022-11-22T13:12:04.490Z,2.67
2022-11-22T13:14:39.105Z,2.72
2022-11-22T13:17:08.401Z,3.13
2022-11-22T13:19:46.628Z,2.17
2022-11-22T13:22:21.916Z,2.90
2022-11-22T13:25:04.488Z,1.65
2022-11-22T13:27:36.157Z,2.20
2022-11-22T13:30:05.474Z,1.30
2022-11-22T13:32:34.733Z,1.55
2022-11-22T13:35:27.739Z,1.20
2022-11-22T13:37:57.939Z,1.93
2022-11-22T13:40:29.802Z,2.08
2022-11-22T13:43:42.934Z,1.58
2022-11-22T13:46:53.938Z,1.02
2022-11-22T13:49:38.191Z,1.50
2022-11-22T13:52:53.650Z,2.72
2022-11-22T13:55:37.255Z,1.90
2022-11-22T13:58:55.822Z,1.60
2022-11-22T14:01:57.649Z,1.48
2022-11-22T14:04:40.666Z,1.10
2022-11-22T14:07:31.600Z,1.42
2022-11-22T14:10:02.005Z,1.20
2022-11-22T14:13:04.507Z,2.08
2022-11-22T14:15:52.224Z,1.38
2022-11-22T14:18:49.574Z,2.35
2022-11-22T14:21:40.187Z,1.30
2022-11-22T14:24:15.563Z,1.33
2022-11-22T14:26:55.725Z,1.33
2022-11-22T14:29:54.047Z,1.00
2022-11-22T14:32:23.844Z,1.40
2022-11-22T14:35:17.370Z,1.13
2022-11-22T14:37:48.497Z,1.20
2022-11-22T14:40:28.836Z,1.85
2022-11-22T14:42:59.826Z,1.60
2022-11-22T14:45:41.209Z,2.50
2022-11-22T14:48:17.598Z,1.45
2022-11-22T14:50:49.770Z,1.48
2022-11-22T14:53:26.002Z,1.02
2022-11-22T14:56:00.608Z,1.80
2022-11-22T14:58:30.768Z,2.33
2022-11-22T15:01:24.508Z,1.77
2022-11-22T15:09:16.273Z,1.50
2022-11-22T15:09:23.395Z,1.50
2022-11-22T15:10:52.157Z,1.55
2022-11-22T15:13:39.605Z,1.75
2022-11-22T15:59:42.845Z,1.73
2022-11-22T16:02:15.882Z,1.48
2022-11-22T16:04:49.237Z,1.73
2022-11-22T16:07:42.317Z,1.45
2022-11-22T16:10:20.234Z,3.55
2022-11-22T16:12:48.290Z,1.90
2022-11-22T16:15:29.037Z,2.95
2022-11-22T16:18:08.276Z,1.90
2022-11-22T16:20:40.124Z,1.25
2022-11-22T16:23:19.826Z,1.52
2022-11-22T16:25:49.797Z,1.30
2022-11-22T16:28:33.334Z,1.48
2022-11-22T16:31:04.442Z,1.75
2022-11-22T16:33:33.230Z,1.77
2022-11-22T16:36:03.532Z,2.03
2022-11-22T16:38:33.121Z,1.70
2022-11-22T16:41:02.624Z,1.27
2022-11-22T16:43:35.418Z,1.33
2022-11-22T16:46:03.387Z,1.98
2022-11-22T16:48:33.033Z,1.70
2022-11-22T16:51:04.884Z,1.27
2022-11-22T16:53:41.200Z,1.70
2022-11-22T16:56:10.278Z,1.58
2022-11-22T16:58:37.974Z,3.90
2022-11-22T17:01:06.067Z,3.28
2022-11-22T17:03:37.777Z,4.38
2022-11-22T17:06:05.614Z,5.82
2022-11-22T17:08:33.379Z,3.30
2022-11-22T17:11:02.498Z,2.58
2022-11-22T17:13:30.300Z,2.70
2022-11-22T17:15:58.369Z,2.55
2022-11-22T17:18:26.152Z,2.72
2022-11-22T17:20:54.429Z,1.75
2022-11-22T17:23:28.369Z,2.20
2022-11-22T17:25:56.227Z,1.73
2022-11-22T17:28:25.360Z,2.28
2022-11-22T17:30:53.388Z,1.33
2022-11-22T17:33:21.181Z,1.98
2022-11-22T17:35:50.372Z,1.88
2022-11-22T17:38:18.304Z,0.98
2022-11-22T17:40:46.205Z,1.10
2022-11-22T17:43:14.368Z,1.45
2022-11-22T17:45:44.813Z,1.95
2022-11-22T17:48:13.658Z,1.48
2022-11-22T17:50:41.538Z,1.65
2022-11-22T17:53:09.336Z,1.83
2022-11-22T17:56:08.470Z,2.10
2022-11-22T17:58:26.605Z,1.83
2022-11-22T18:01:03.521Z,1.90
2022-11-22T18:03:31.452Z,1.92
2022-11-22T18:05:59.251Z,2.20
2022-11-22T18:08:27.015Z,2.28
2022-11-22T18:10:54.911Z,1.75
2022-11-22T18:13:23.431Z,1.60
2022-11-22T18:15:52.452Z,1.90
2022-11-22T18:18:54.413Z,1.48
2022-11-22T18:21:15.650Z,2.55
2022-11-22T18:23:45.209Z,1.90
2022-11-22T18:31:53.436Z,2.60
2022-11-22T18:34:23.610Z,2.35
2022-11-22T18:39:40.432Z,1.65
2022-11-22T18:42:11.498Z,1.88
2022-11-22T18:44:39.301Z,1.50
2022-11-22T18:47:07.208Z,1.85
2022-11-22T18:49:36.930Z,3.30
2022-11-22T18:52:05.216Z,3.63
2022-11-22T18:54:33.327Z,4.43
2022-11-22T18:57:01.297Z,4.32
2022-11-22T18:59:29.077Z,6.95
2022-11-22T19:01:56.769Z,6.05
2022-11-22T19:04:24.479Z,4.53
2022-11-22T19:06:55.441Z,4.93
2022-11-22T19:09:23.226Z,4.45
2022-11-22T19:11:55.575Z,3.97
2022-11-22T19:14:27.104Z,5.85
2022-11-22T19:16:54.811Z,3.88
2022-11-22T19:19:24.309Z,2.63
2022-11-22T19:21:53.352Z,2.00
2022-11-22T19:24:21.251Z,3.08
2022-11-22T19:26:49.000Z,2.42
2022-11-22T19:29:17.101Z,2.00
2022-11-22T19:31:45.208Z,2.10
2022-11-22T19:34:13.330Z,1.92
2022-11-22T19:36:41.484Z,2.80
2022-11-22T19:39:13.552Z,2.20
2022-11-22T19:41:42.216Z,2.03
2022-11-22T19:44:10.505Z,2.35
2022-11-22T19:46:41.387Z,2.00
2022-11-22T19:49:10.209Z,2.08
2022-11-22T19:51:38.932Z,2.47
2022-11-22T19:54:07.487Z,2.63
2022-11-22T19:56:37.865Z,2.45
2022-11-22T19:59:07.420Z,2.85
2022-11-22T20:01:36.232Z,3.42
2022-11-22T20:04:06.570Z,3.53
2022-11-22T20:06:35.403Z,1.65
2022-11-22T20:09:05.086Z,4.35
2022-11-22T20:11:33.325Z,2.33
2022-11-22T20:14:02.534Z,2.08
2022-11-22T20:16:31.392Z,2.47
2022-11-22T20:19:00.918Z,2.47
2022-11-22T20:21:30.770Z,4.15
2022-11-22T20:23:59.305Z,2.17
2022-11-22T20:26:28.801Z,2.55
2022-11-22T20:28:58.143Z,2.00
2022-11-22T20:31:30.304Z,2.13
2022-11-22T20:33:59.963Z,2.40
2022-11-22T20:36:29.947Z,1.95
2022-11-22T20:38:58.266Z,2.35
2022-11-22T20:41:27.889Z,2.53
2022-11-22T20:43:55.918Z,2.05
2022-11-22T20:46:25.476Z,2.00
2022-11-22T20:48:55.924Z,2.15
2022-11-22T20:51:25.516Z,2.53
2022-11-22T20:53:53.701Z,2.45
2022-11-22T20:56:22.107Z,2.40
2022-11-22T20:58:50.254Z,1.65
2022-11-22T21:01:19.953Z,2.00
2022-11-22T21:03:48.343Z,2.55
2022-11-22T21:06:18.719Z,2.25
2022-11-22T21:08:46.886Z,1.77
2022-11-22T21:11:16.555Z,1.75
2022-11-22T21:13:44.975Z,1.35
2022-11-22T21:16:23.177Z,1.70
2022-11-22T21:18:52.515Z,1.55
2022-11-22T21:21:23.961Z,2.08
2022-11-22T21:23:52.696Z,2.38
2022-11-22T21:26:20.844Z,2.58
2022-11-22T21:28:48.847Z,1.92
2022-11-22T21:31:16.692Z,1.98
2022-11-22T21:33:45.688Z,1.88
2022-11-22T21:36:15.090Z,2.47
2022-11-22T21:38:44.154Z,2.47
2022-11-22T21:41:38.657Z,2.25
2022-11-22T21:44:04.039Z,2.65
2022-11-22T21:46:31.840Z,2.08
2022-11-22T21:48:59.593Z,1.33
2022-11-22T21:51:30.410Z,1.95
2022-11-22T21:54:00.346Z,1.90
2022-11-22T21:56:28.857Z,1.75
2022-11-22T21:58:57.341Z,1.77
2022-11-22T22:01:25.583Z,2.20
2022-11-22T22:03:53.672Z,1.40
2022-11-22T22:06:21.536Z,1.90
2022-11-22T22:08:49.432Z,1.88
2022-11-22T22:11:18.673Z,1.25
2022-11-22T22:13:46.600Z,1.98
2022-11-22T22:16:19.105Z,1.27
2022-11-22T22:18:47.310Z,2.10
2022-11-22T22:21:16.138Z,2.72
2022-11-22T22:23:44.833Z,2.38
2022-11-22T22:26:14.421Z,2.03
2022-11-22T22:28:44.995Z,2.40
2022-11-22T22:31:16.832Z,2.72
2022-11-22T22:33:46.491Z,2.28
2022-11-22T22:36:15.015Z,2.83
2022-11-22T22:38:43.081Z,1.60
2022-11-22T22:41:12.943Z,2.80
2022-11-22T22:43:43.924Z,1.92
2022-11-22T22:46:14.225Z,2.38
2022-11-22T22:48:42.835Z,1.77
2022-11-22T22:51:13.772Z,3.22
2022-11-22T22:53:42.194Z,1.30
2022-11-22T22:56:11.123Z,2.05
2022-11-22T22:58:39.255Z,1.65
2022-11-22T23:01:10.389Z,1.90
2022-11-22T23:03:38.189Z,1.30
2022-11-22T23:06:07.219Z,1.65
2022-11-22T23:08:35.085Z,1.58
2022-11-22T23:11:04.425Z,1.65
2022-11-22T23:13:32.543Z,2.03
2022-11-22T23:16:00.528Z,1.33
2022-11-22T23:18:29.917Z,1.20
2022-11-22T23:21:00.823Z,1.83
2022-11-22T23:23:29.627Z,1.80
2022-11-22T23:25:57.617Z,2.20
2022-11-22T23:28:25.307Z,2.65
2022-11-22T23:30:53.368Z,1.60
2022-11-22T23:33:21.060Z,1.73
2022-11-22T23:35:50.246Z,2.15
2022-11-22T23:38:17.971Z,1.67
2022-11-22T23:40:45.684Z,1.98
2022-11-22T23:43:13.450Z,1.73
2022-11-22T23:45:46.359Z,1.90
2022-11-22T23:48:14.340Z,2.13
2022-11-22T23:50:42.178Z,1.95
2022-11-22T23:53:11.357Z,1.52
2022-11-22T23:55:39.068Z,1.27
2022-11-22T23:58:06.891Z,2.42
